createdAt,value
2022-11-15T00:00:59.329Z,98135.03
2022-11-15T00:03:44.384Z,98135.00
2022-11-15T00:06:29.291Z,98139.31
2022-11-15T00:09:14.136Z,98128.78
2022-11-15T00:11:59.038Z,98132.22
2022-11-15T00:14:43.832Z,98126.75
2022-11-15T00:17:28.837Z,98130.81
2022-11-15T00:20:14.154Z,98128.78
2022-11-15T00:22:59.247Z,98133.66
2022-11-15T00:25:44.188Z,98131.63
2022-11-15T00:28:28.924Z,98129.78
2022-11-15T00:31:15.248Z,98128.53
2022-11-15T00:34:00.056Z,98127.53
2022-11-15T00:36:45.051Z,98125.28
2022-11-15T00:39:30.123Z,98126.56
2022-11-15T00:42:15.071Z,98130.22
2022-11-15T00:45:00.020Z,98114.41
2022-11-15T00:47:46.587Z,98119.03
2022-11-15T00:50:31.708Z,98122.91
2022-11-15T00:53:17.476Z,98120.69
2022-11-15T00:56:02.650Z,98115.63
2022-11-15T00:58:47.485Z,98113.41
2022-11-15T01:01:32.294Z,98121.09
2022-11-15T01:04:17.241Z,98113.41
2022-11-15T01:07:02.133Z,98108.53
2022-11-15T01:09:47.008Z,98103.66
2022-11-15T01:12:32.908Z,98108.53
2022-11-15T01:15:17.895Z,98108.53
2022-11-15T01:18:03.114Z,98104.66
2022-11-15T01:20:47.900Z,98104.66
2022-11-15T01:23:32.898Z,98108.13
2022-11-15T01:26:18.188Z,98106.91
2022-11-15T01:29:04.093Z,98091.47
2022-11-15T01:31:49.075Z,98091.28
2022-11-15T01:34:33.875Z,98096.97
2022-11-15T01:37:18.721Z,98098.56
2022-11-15T01:40:04.473Z,98096.34
2022-11-15T01:42:49.604Z,98089.84
2022-11-15T01:45:34.547Z,98084.16
2022-11-15T01:48:19.658Z,98079.09
2022-11-15T01:51:10.190Z,98081.94
2022-11-15T01:53:59.122Z,98084.16
2022-11-15T01:56:50.264Z,98075.03
2022-11-15T01:59:35.860Z,98075.03
2022-11-15T02:02:21.386Z,98076.66
2022-11-15T02:05:06.918Z,98065.09
2022-11-15T02:07:52.523Z,98059.59
2022-11-15T02:10:37.730Z,98057.13
2022-11-15T02:13:23.271Z,98060.19
2022-11-15T02:16:48.825Z,98061.41
2022-11-15T02:19:33.907Z,98058.56
2022-11-15T02:22:30.808Z,98052.47
2022-11-15T02:25:40.600Z,98056.31
2022-11-15T02:28:44.138Z,98047.75
2022-11-15T02:31:46.283Z,98052.00
2022-11-15T02:35:18.638Z,98040.22
2022-11-15T02:38:18.163Z,98038.97
2022-11-15T02:41:08.413Z,98034.31
2022-11-15T02:44:08.929Z,98028.41
2022-11-15T02:47:16.094Z,98020.47
2022-11-15T02:50:10.893Z,98024.19
2022-11-15T02:52:56.743Z,98021.16
2022-11-15T02:55:48.925Z,98020.13
2022-11-15T02:59:00.350Z,98019.31
2022-11-15T03:02:07.323Z,98015.91
2022-11-15T03:04:59.447Z,98009.78
2022-11-15T03:08:12.896Z,98013.56
2022-11-15T03:11:10.063Z,98013.59
2022-11-15T03:14:02.844Z,98013.59
2022-11-15T03:17:24.210Z,98012.78
2022-11-15T03:20:12.601Z,98013.41
2022-11-15T03:23:11.874Z,98006.69
2022-11-15T03:25:59.265Z,98007.72
2022-11-15T03:29:07.515Z,98006.28
2022-11-15T03:32:01.667Z,98013.00
2022-11-15T03:35:13.853Z,98007.09
2022-11-15T03:38:08.435Z,98005.84
2022-11-15T03:40:57.791Z,98010.53
2022-11-15T03:43:53.993Z,98008.88
2022-11-15T03:46:50.544Z,98010.13
2022-11-15T03:49:39.518Z,98004.22
2022-11-15T03:52:24.934Z,98004.03
2022-11-15T03:55:15.955Z,98006.13
2022-11-15T03:58:02.240Z,98009.91
2022-11-15T04:00:47.493Z,98011.41
2022-11-15T04:03:32.979Z,98006.06
2022-11-15T04:06:18.058Z,98015.03
2022-11-15T04:09:03.323Z,98011.00
2022-11-15T04:11:48.242Z,98006.69
2022-11-15T04:14:33.137Z,97999.22
2022-11-15T04:17:17.902Z,97999.81
2022-11-15T04:20:24.216Z,97998.59
2022-11-15T04:23:36.491Z,98000.09
2022-11-15T04:26:23.969Z,97996.41
2022-11-15T04:29:27.513Z,97994.97
2022-11-15T04:32:12.728Z,97996.81
2022-11-15T04:34:57.797Z,97985.44
2022-11-15T04:37:47.923Z,97973.47
2022-11-15T04:40:34.441Z,97971.28
2022-11-15T04:43:19.628Z,97967.47
2022-11-15T04:46:04.625Z,97971.75
2022-11-15T04:48:52.061Z,97977.44
2022-11-15T04:51:40.809Z,97977.63
2022-11-15T04:54:25.740Z,97982.69
2022-11-15T04:57:10.704Z,97980.44
2022-11-15T04:59:55.847Z,97981.25
2022-11-15T05:02:59.547Z,97985.72
2022-11-15T05:05:44.667Z,97980.59
2022-11-15T05:08:29.588Z,97984.88
2022-11-15T05:11:14.493Z,97985.09
2022-11-15T05:13:59.431Z,97972.75
2022-11-15T05:16:44.264Z,97978.47
2022-11-15T05:19:29.176Z,97968.75
2022-11-15T05:22:13.978Z,97973.41
2022-11-15T05:24:58.906Z,97980.09
2022-11-15T05:27:43.745Z,97979.03
2022-11-15T05:30:28.531Z,97975.56
2022-11-15T05:33:13.550Z,97977.00
2022-11-15T05:36:10.807Z,97976.59
2022-11-15T05:38:55.974Z,97969.47
2022-11-15T05:41:47.867Z,97961.75
2022-11-15T05:44:33.346Z,97957.31
2022-11-15T05:47:24.217Z,97962.41
2022-11-15T05:50:13.612Z,97966.44
2022-11-15T05:53:03.730Z,97971.94
2022-11-15T05:55:50.787Z,97967.47
2022-11-15T05:58:37.396Z,97964.84
2022-11-15T06:01:23.161Z,97974.53
2022-11-15T06:04:08.181Z,97978.78
2022-11-15T06:06:53.132Z,97975.91
2022-11-15T06:09:37.958Z,97976.13
2022-11-15T06:12:23.111Z,97981.59
2022-11-15T06:15:08.818Z,97974.66
2022-11-15T06:17:58.380Z,97974.84
2022-11-15T06:20:43.375Z,97972.97
2022-11-15T06:23:29.339Z,97973.22
2022-11-15T06:26:14.759Z,97973.66
2022-11-15T06:28:59.861Z,97967.56
2022-11-15T06:31:44.892Z,97972.63
2022-11-15T06:34:30.010Z,97969.59
2022-11-15T06:37:15.068Z,97979.13
2022-11-15T06:39:59.916Z,97983.59
2022-11-15T06:42:44.805Z,97982.16
2022-11-15T06:45:29.845Z,97984.03
2022-11-15T06:48:15.081Z,97985.25
2022-11-15T06:51:01.864Z,97981.97
2022-11-15T06:53:47.374Z,97985.81
2022-11-15T06:56:32.442Z,97990.78
2022-11-15T06:59:17.354Z,97981.97
2022-11-15T07:02:02.439Z,97988.69
2022-11-15T07:05:00.424Z,97982.63
2022-11-15T07:07:52.618Z,97987.91
2022-11-15T07:10:37.836Z,97981.63
2022-11-15T07:13:26.509Z,97991.75
2022-11-15T07:16:11.994Z,97980.22
2022-11-15T07:18:57.131Z,97982.25
2022-11-15T07:21:43.299Z,97993.53
2022-11-15T07:24:28.440Z,97984.47
2022-11-15T07:27:13.925Z,97985.28
2022-11-15T07:29:59.312Z,97985.31
2022-11-15T07:32:44.471Z,97976.78
2022-11-15T07:35:30.922Z,97981.25
2022-11-15T07:38:16.905Z,97979.84
2022-11-15T07:41:05.709Z,97975.38
2022-11-15T07:43:53.954Z,97983.47
2022-11-15T07:46:39.064Z,97975.22
2022-11-15T07:49:24.001Z,97974.56
2022-11-15T07:52:08.986Z,97978.44
2022-11-15T07:54:53.940Z,97974.81
2022-11-15T07:57:39.019Z,97982.53
2022-11-15T08:00:24.248Z,97992.25
2022-11-15T08:03:12.184Z,97978.47
2022-11-15T08:05:56.989Z,97978.03
2022-11-15T08:08:41.874Z,97980.25
2022-11-15T08:11:26.794Z,97971.91
2022-11-15T08:14:11.954Z,97962.38
2022-11-15T08:16:56.721Z,97967.47
2022-11-15T08:19:41.528Z,97964.63
2022-11-15T08:22:26.528Z,97968.47
2022-11-15T08:25:11.615Z,97962.63
2022-11-15T08:27:58.027Z,97965.41
2022-11-15T08:30:46.300Z,97970.09
2022-11-15T08:33:32.801Z,97963.38
2022-11-15T08:36:18.375Z,97970.66
2022-11-15T08:39:03.794Z,97963.09
2022-11-15T08:41:48.899Z,97966.97
2022-11-15T08:44:33.939Z,97969.34
2022-11-15T08:47:18.846Z,97959.00
2022-11-15T08:50:03.789Z,97952.91
2022-11-15T08:52:51.805Z,97952.59
2022-11-15T08:55:38.061Z,97949.81
2022-11-15T08:58:23.000Z,97942.44
2022-11-15T09:01:18.718Z,97946.47
2022-11-15T09:04:04.902Z,97941.56
2022-11-15T09:06:50.161Z,97948.09
2022-11-15T09:09:35.095Z,97938.09
2022-11-15T09:12:20.185Z,97933.13
2022-11-15T09:15:06.506Z,97933.13
2022-11-15T09:17:51.387Z,97925.06
2022-11-15T09:20:36.980Z,97925.88
2022-11-15T09:23:21.882Z,97915.84
2022-11-15T09:26:07.865Z,97917.78
2022-11-15T09:28:53.098Z,97924.28
2022-11-15T09:31:38.029Z,97920.28
2022-11-15T09:34:23.217Z,97920.78
2022-11-15T09:37:08.336Z,97923.44
2022-11-15T09:39:53.400Z,97932.28
2022-11-15T09:42:56.547Z,97924.56
2022-11-15T09:45:47.435Z,97926.13
2022-11-15T09:48:55.147Z,97925.53
2022-11-15T09:51:48.340Z,97925.75
2022-11-15T09:57:17.972Z,97926.28
2022-11-15T10:00:12.239Z,97927.06
2022-11-15T10:02:49.867Z,97920.75
2022-11-15T10:05:20.468Z,97918.56
2022-11-15T10:08:02.141Z,97916.84
2022-11-15T10:10:39.245Z,97911.78
2022-11-15T10:13:12.912Z,97911.66
2022-11-15T10:15:39.567Z,97901.19
2022-11-15T10:18:17.394Z,97897.56
2022-11-15T10:20:55.241Z,97887.44
2022-11-15T10:23:23.324Z,97871.81
2022-11-15T10:25:54.114Z,97872.28
2022-11-15T10:28:28.482Z,97861.22
2022-11-15T10:31:00.136Z,97857.97
2022-11-15T10:33:40.308Z,97851.56
2022-11-15T10:36:10.121Z,97837.47
2022-11-15T10:38:51.784Z,97839.22
2022-11-15T10:41:19.811Z,97837.28
2022-11-15T10:44:09.717Z,97832.31
2022-11-15T10:46:47.479Z,97826.44
2022-11-15T10:49:31.304Z,97822.06
2022-11-15T10:52:01.397Z,97817.31
2022-11-15T10:54:37.049Z,97817.13
2022-11-15T10:57:11.897Z,97815.59
2022-11-15T10:59:39.581Z,97811.00
2022-11-15T11:02:36.199Z,97808.09
2022-11-15T11:05:05.344Z,97804.19
2022-11-15T11:07:34.191Z,97795.31
2022-11-15T11:13:15.622Z,97793.69
2022-11-15T11:15:45.912Z,97791.50
2022-11-15T11:18:23.391Z,97786.72
2022-11-15T11:20:57.951Z,97789.28
2022-11-15T11:23:48.752Z,97788.81
2022-11-15T11:26:27.249Z,97780.97
2022-11-15T11:29:02.786Z,97778.72
2022-11-15T11:31:49.040Z,97773.38
2022-11-15T11:34:53.121Z,97769.88
2022-11-15T11:37:40.738Z,97763.19
2022-11-15T11:40:16.825Z,97757.53
2022-11-15T11:43:00.417Z,97759.66
2022-11-15T11:45:59.186Z,97757.13
2022-11-15T11:48:46.629Z,97748.22
2022-11-15T11:51:38.621Z,97750.59
2022-11-15T11:54:13.519Z,97744.38
2022-11-15T11:56:44.173Z,97744.38
2022-11-15T11:59:19.306Z,97741.06
2022-11-15T12:01:46.246Z,97735.75
2022-11-15T12:04:35.111Z,97730.97
2022-11-15T12:07:14.804Z,97721.84
2022-11-15T12:10:02.892Z,97724.84
2022-11-15T12:12:37.611Z,97724.41
2022-11-15T12:15:10.123Z,97722.31
2022-11-15T12:17:39.521Z,97703.81
2022-11-15T12:20:17.417Z,97703.56
2022-11-15T12:22:53.054Z,97697.31
2022-11-15T12:25:57.133Z,97697.94
2022-11-15T12:28:52.893Z,97693.09
2022-11-15T12:31:56.591Z,97693.53
2022-11-15T12:34:23.154Z,97679.50
2022-11-15T12:36:51.520Z,97671.97
2022-11-15T12:39:18.752Z,97672.66
2022-11-15T12:42:05.136Z,97662.03
2022-11-15T12:44:31.622Z,97651.47
2022-11-15T12:46:58.012Z,97647.78
2022-11-15T12:49:24.411Z,97638.13
2022-11-15T12:51:51.842Z,97642.06
2022-11-15T12:54:24.409Z,97637.66
2022-11-15T12:57:09.203Z,97638.06
2022-11-15T13:00:00.245Z,97627.28
2022-11-15T13:02:30.576Z,97634.53
2022-11-15T13:05:19.209Z,97623.44
2022-11-15T13:07:45.662Z,97626.63
2022-11-15T13:10:28.105Z,97624.31
2022-11-15T13:12:56.480Z,97620.59
2022-11-15T13:15:46.765Z,97617.06
2022-11-15T13:18:40.151Z,97607.16
2022-11-15T13:21:40.477Z,97608.50
2022-11-15T13:24:16.855Z,97612.06
2022-11-15T13:26:43.989Z,97606.19
2022-11-15T13:29:17.715Z,97597.09
2022-11-15T13:31:45.650Z,97594.09
2022-11-15T13:37:30.793Z,97591.06
2022-11-15T13:40:16.761Z,97580.16
2022-11-15T13:42:45.876Z,97582.94
2022-11-15T13:45:16.684Z,97577.94
2022-11-15T13:47:43.543Z,97579.47
2022-11-15T13:50:14.697Z,97562.66
2022-11-15T13:52:46.532Z,97563.22
2022-11-15T13:55:17.057Z,97551.22
2022-11-15T13:57:47.312Z,97552.59
2022-11-15T14:00:44.181Z,97539.97
2022-11-15T14:03:25.472Z,97540.69
2022-11-15T14:06:13.264Z,97529.75
2022-11-15T14:08:59.401Z,97533.69
2022-11-15T14:11:25.973Z,97527.75
2022-11-15T14:14:05.609Z,97532.97
2022-11-15T14:16:38.131Z,97537.88
2022-11-15T14:19:07.149Z,97531.56
2022-11-15T14:21:33.847Z,97530.78
2022-11-15T14:24:20.825Z,97524.06
2022-11-15T14:26:48.276Z,97515.28
2022-11-15T14:29:23.768Z,97509.03
2022-11-15T14:31:50.813Z,97503.97
2022-11-15T14:34:17.257Z,97504.03
2022-11-15T14:36:43.744Z,97497.53
2022-11-15T14:39:10.195Z,97493.03
2022-11-15T14:41:40.557Z,97486.50
2022-11-15T14:44:07.689Z,97497.78
2022-11-15T14:46:34.150Z,97489.53
2022-11-15T14:49:00.721Z,97486.00
2022-11-15T14:51:27.241Z,97491.66
2022-11-15T14:53:55.075Z,97489.09
2022-11-15T14:56:21.603Z,97478.25
2022-11-15T14:58:48.097Z,97479.34
2022-11-15T15:01:22.070Z,97475.41
2022-11-15T15:03:48.848Z,97473.03
2022-11-15T15:06:18.242Z,97474.34
2022-11-15T15:08:46.959Z,97466.84
2022-11-15T15:11:24.974Z,97463.66
2022-11-15T15:13:53.300Z,97465.66
2022-11-15T15:16:20.334Z,97462.88
2022-11-15T15:18:46.803Z,97459.09
2022-11-15T15:21:37.220Z,97451.59
2022-11-15T15:24:04.663Z,97451.38
2022-11-15T15:26:34.619Z,97452.06
2022-11-15T15:29:01.460Z,97447.81
2022-11-15T15:31:27.964Z,97454.97
2022-11-15T15:33:54.454Z,97449.88
2022-11-15T15:36:21.013Z,97444.16
2022-11-15T15:38:47.773Z,97439.53
2022-11-15T15:41:16.377Z,97437.03
2022-11-15T15:43:43.681Z,97444.38
2022-11-15T15:46:15.581Z,97441.50
2022-11-15T15:48:42.280Z,97441.63
2022-11-15T15:51:15.379Z,97437.72
2022-11-15T15:53:45.192Z,97435.97
2022-11-15T15:56:11.735Z,97431.94
2022-11-15T15:58:38.255Z,97432.97
2022-11-15T16:01:04.978Z,97427.25
2022-11-15T16:03:32.131Z,97427.34
2022-11-15T16:05:59.213Z,97420.91
2022-11-15T16:08:27.572Z,97414.25
2022-11-15T16:10:54.170Z,97414.81
2022-11-15T16:13:20.721Z,97401.38
2022-11-15T16:15:51.904Z,97398.13
2022-11-15T16:18:19.129Z,97395.84
2022-11-15T16:20:52.891Z,97390.31
2022-11-15T16:23:22.432Z,97397.19
2022-11-15T16:25:54.120Z,97397.50
2022-11-15T16:28:21.872Z,97396.16
2022-11-15T16:30:53.840Z,97391.56
2022-11-15T16:33:23.022Z,97399.78
2022-11-15T16:35:49.514Z,97397.00
2022-11-15T16:38:16.693Z,97392.19
2022-11-15T16:40:43.468Z,97389.78
2022-11-15T16:43:10.612Z,97390.22
2022-11-15T16:45:37.463Z,97388.97
2022-11-15T16:48:04.716Z,97391.50
2022-11-15T16:50:39.776Z,97380.66
2022-11-15T16:53:06.426Z,97389.66
2022-11-15T16:55:33.040Z,97380.56
2022-11-15T16:57:59.602Z,97378.50
2022-11-15T17:00:26.401Z,97380.09
2022-11-15T17:02:53.214Z,97372.59
2022-11-15T17:05:22.101Z,97374.25
2022-11-15T17:07:50.492Z,97374.03
2022-11-15T17:10:17.259Z,97378.28
2022-11-15T17:12:43.969Z,97379.09
2022-11-15T17:15:12.955Z,97377.28
2022-11-15T17:17:40.329Z,97382.78
2022-11-15T17:20:13.823Z,97373.38
2022-11-15T17:22:40.269Z,97368.00
2022-11-15T17:25:07.135Z,97371.66
2022-11-15T17:27:33.691Z,97370.88
2022-11-15T17:30:00.203Z,97366.38
2022-11-15T17:32:26.667Z,97371.78
2022-11-15T17:34:53.191Z,97363.06
2022-11-15T17:37:19.676Z,97357.75
2022-11-15T17:39:46.130Z,97370.38
2022-11-15T17:42:12.615Z,97373.09
2022-11-15T17:44:39.103Z,97357.19
2022-11-15T17:47:05.631Z,97356.53
2022-11-15T17:49:32.235Z,97352.81
2022-11-15T17:51:58.697Z,97344.78
2022-11-15T17:54:25.150Z,97349.59
2022-11-15T17:56:51.645Z,97352.69
2022-11-15T17:59:21.597Z,97351.47
2022-11-15T18:01:48.315Z,97349.06
2022-11-15T18:04:15.322Z,97343.13
2022-11-15T18:06:41.771Z,97346.25
2022-11-15T18:09:08.500Z,97345.00
2022-11-15T18:11:41.353Z,97334.16
2022-11-15T18:14:12.574Z,97338.50
2022-11-15T18:16:40.208Z,97336.38
2022-11-15T18:19:13.244Z,97343.25
2022-11-15T18:21:57.156Z,97339.84
2022-11-15T18:24:29.585Z,97332.16
2022-11-15T18:26:56.883Z,97332.59
2022-11-15T18:29:24.722Z,97322.66
2022-11-15T18:31:54.983Z,97320.00
2022-11-15T18:34:23.613Z,97321.34
2022-11-15T18:36:52.388Z,97330.66
2022-11-15T18:39:19.371Z,97326.97
2022-11-15T18:41:49.203Z,97317.56
2022-11-15T18:44:16.357Z,97322.97
2022-11-15T18:46:44.881Z,97320.97
2022-11-15T18:49:13.219Z,97317.72
2022-11-15T18:51:41.660Z,97321.34
2022-11-15T18:54:10.672Z,97313.22
2022-11-15T18:56:37.788Z,97310.19
2022-11-15T18:59:05.142Z,97308.47
2022-11-15T19:01:34.550Z,97305.72
2022-11-15T19:04:12.257Z,97308.28
2022-11-15T19:06:42.058Z,97306.38
2022-11-15T19:09:10.668Z,97299.66
2022-11-15T19:11:39.865Z,97304.97
2022-11-15T19:14:08.972Z,97307.00
2022-11-15T19:16:41.103Z,97297.97
2022-11-15T19:19:14.779Z,97296.56
2022-11-15T19:21:42.109Z,97284.78
2022-11-15T19:24:10.255Z,97284.91
2022-11-15T19:26:39.581Z,97276.75
2022-11-15T19:29:10.135Z,97275.06
2022-11-15T19:31:37.861Z,97273.53
2022-11-15T19:34:05.921Z,97269.78
2022-11-15T19:36:37.234Z,97268.22
2022-11-15T19:39:08.298Z,97267.25
2022-11-15T19:41:38.798Z,97257.69
2022-11-15T19:44:06.401Z,97254.09
2022-11-15T19:46:32.997Z,97258.66
2022-11-15T19:48:59.652Z,97253.00
2022-11-15T19:51:30.183Z,97249.66
2022-11-15T19:53:59.152Z,97243.00
2022-11-15T19:56:25.884Z,97253.31
2022-11-15T19:58:53.927Z,97245.72
2022-11-15T20:01:26.142Z,97250.94
2022-11-15T20:03:54.645Z,97244.75
2022-11-15T20:06:32.574Z,97246.00
2022-11-15T20:08:59.281Z,97244.53
2022-11-15T20:11:26.113Z,97249.97
2022-11-15T20:13:57.334Z,97245.47
2022-11-15T20:16:24.417Z,97242.00
2022-11-15T20:18:52.141Z,97242.84
2022-11-15T20:21:18.775Z,97244.06
2022-11-15T20:23:45.361Z,97242.16
2022-11-15T20:26:15.149Z,97244.00
2022-11-15T20:28:43.936Z,97237.69
2022-11-15T20:31:11.295Z,97240.81
2022-11-15T20:33:37.781Z,97247.66
2022-11-15T20:36:15.485Z,97242.34
2022-11-15T20:38:42.227Z,97243.13
2022-11-15T20:41:10.766Z,97234.53
2022-11-15T20:43:37.247Z,97236.75
2022-11-15T20:46:04.240Z,97231.81
2022-11-15T20:48:31.326Z,97226.56
2022-11-15T20:51:14.340Z,97226.66
2022-11-15T20:53:42.307Z,97223.88
2022-11-15T20:56:13.924Z,97215.63
2022-11-15T20:58:40.718Z,97209.69
2022-11-15T21:01:09.117Z,97210.47
2022-11-15T21:03:36.460Z,97210.59
2022-11-15T21:06:03.392Z,97210.13
2022-11-15T21:08:50.487Z,97209.91
2022-11-15T21:11:35.621Z,97204.75
2022-11-15T21:14:06.311Z,97199.44
2022-11-15T21:16:35.356Z,97195.97
2022-11-15T21:19:01.803Z,97193.66
2022-11-15T21:21:28.350Z,97200.53
2022-11-15T21:23:54.800Z,97194.53
2022-11-15T21:26:21.267Z,97196.09
2022-11-15T21:28:47.773Z,97196.91
2022-11-15T21:31:14.337Z,97201.69
2022-11-15T21:33:40.779Z,97198.72
2022-11-15T21:36:07.819Z,97188.91
2022-11-15T21:38:34.514Z,97197.84
2022-11-15T21:41:03.967Z,97188.78
2022-11-15T21:43:30.602Z,97188.63
2022-11-15T21:46:00.077Z,97186.66
2022-11-15T21:48:27.842Z,97186.59
2022-11-15T21:50:58.684Z,97184.03
2022-11-15T21:53:26.293Z,97177.81
2022-11-15T21:55:52.898Z,97179.44
2022-11-15T21:58:20.341Z,97173.78
2022-11-15T22:01:05.299Z,97170.41
2022-11-15T22:03:31.867Z,97173.63
2022-11-15T22:05:58.313Z,97164.09
2022-11-15T22:08:25.562Z,97169.84
2022-11-15T22:10:52.934Z,97156.22
2022-11-15T22:13:19.546Z,97150.59
2022-11-15T22:15:46.682Z,97151.00
2022-11-15T22:18:14.156Z,97149.78
2022-11-15T22:20:45.310Z,97146.31
2022-11-15T22:23:12.106Z,97146.81
2022-11-15T22:25:38.695Z,97144.06
2022-11-15T22:28:05.354Z,97145.09
2022-11-15T22:30:31.861Z,97143.47
2022-11-15T22:32:58.327Z,97145.09
2022-11-15T22:35:24.808Z,97147.56
2022-11-15T22:37:52.689Z,97139.00
2022-11-15T22:40:19.305Z,97140.72
2022-11-15T22:42:45.942Z,97140.84
2022-11-15T22:45:12.439Z,97140.97
2022-11-15T22:47:38.930Z,97137.41
2022-11-15T22:50:06.401Z,97134.66
2022-11-15T22:52:32.935Z,97130.97
2022-11-15T22:54:59.428Z,97128.81
2022-11-15T22:57:25.940Z,97125.56
2022-11-15T22:59:52.455Z,97123.66
2022-11-15T23:02:18.985Z,97126.97
2022-11-15T23:04:45.704Z,97131.69
2022-11-15T23:07:12.285Z,97131.44
2022-11-15T23:09:38.920Z,97130.06
2022-11-15T23:12:27.395Z,97129.28
2022-11-15T23:14:53.947Z,97121.09
2022-11-15T23:17:20.458Z,97127.19
2022-11-15T23:19:47.258Z,97122.38
2022-11-15T23:22:32.088Z,97120.66
2022-11-15T23:24:59.559Z,97119.72
2022-11-15T23:27:26.122Z,97109.88
2022-11-15T23:30:11.011Z,97105.19
2022-11-15T23:32:56.160Z,97111.00
2022-11-15T23:35:22.726Z,97104.25
2022-11-15T23:37:49.206Z,97094.97
2022-11-15T23:40:15.839Z,97092.09
2022-11-15T23:42:42.351Z,97093.50
2022-11-15T23:45:09.160Z,97091.75
2022-11-15T23:47:35.687Z,97094.16
2022-11-15T23:50:02.225Z,97095.06
2022-11-15T23:52:28.688Z,97095.31
2022-11-15T23:54:55.185Z,97097.56
2022-11-15T23:57:21.665Z,97088.28
2022-11-15T23:59:48.202Z,97096.66
